createdAt,value
2022-12-26T00:01:05.759Z,15.77
2022-12-26T00:04:49.293Z,16.03
2022-12-26T00:07:29.265Z,14.70
2022-12-26T00:10:30.871Z,15.47
2022-12-26T00:13:39.697Z,15.57
2022-12-26T00:16:43.806Z,14.27
2022-12-26T00:19:45.475Z,12.20
2022-12-26T00:22:47.123Z,12.17
2022-12-26T00:25:48.708Z,11.17
2022-12-26T00:28:50.730Z,9.13
2022-12-26T00:31:52.421Z,8.50
2022-12-26T00:34:54.025Z,11.03
2022-12-26T00:37:55.611Z,10.63
2022-12-26T00:40:57.329Z,9.30
2022-12-26T00:43:58.982Z,8.73
2022-12-26T00:47:00.638Z,7.97
2022-12-26T00:50:14.857Z,8.00
2022-12-26T00:53:17.573Z,9.13
2022-12-26T00:56:19.301Z,9.70
2022-12-26T00:59:20.907Z,9.70
2022-12-26T01:02:40.962Z,9.77
2022-12-26T01:05:44.063Z,10.83
2022-12-26T01:08:45.672Z,8.47
2022-12-26T01:11:47.466Z,9.33
2022-12-26T01:14:49.062Z,9.33
2022-12-26T01:17:50.719Z,9.30
2022-12-26T01:20:52.401Z,8.53
2022-12-26T01:23:54.807Z,7.77
2022-12-26T01:26:56.414Z,7.20
2022-12-26T01:29:57.983Z,6.93
2022-12-26T01:32:59.570Z,8.43
2022-12-26T01:36:01.317Z,6.90
2022-12-26T01:39:02.914Z,7.77
2022-12-26T01:42:10.094Z,8.27
2022-12-26T01:45:17.597Z,7.60
2022-12-26T01:48:22.632Z,7.80
2022-12-26T01:51:25.871Z,6.83
2022-12-26T01:54:40.280Z,7.27
2022-12-26T01:57:45.561Z,7.07
2022-12-26T02:00:47.347Z,7.50
2022-12-26T02:04:08.004Z,6.63
2022-12-26T02:07:09.897Z,5.50
2022-12-26T02:10:14.554Z,6.13
2022-12-26T02:13:17.302Z,6.10
2022-12-26T02:16:18.981Z,7.00
2022-12-26T02:19:26.505Z,6.67
2022-12-26T02:22:43.020Z,6.67
2022-12-26T02:25:59.462Z,6.37
2022-12-26T02:29:17.785Z,6.90
2022-12-26T02:32:25.585Z,6.40
2022-12-26T02:35:27.209Z,6.40
2022-12-26T02:38:31.840Z,6.17
2022-12-26T02:41:42.900Z,3.77
2022-12-26T02:45:09.901Z,4.77
2022-12-26T02:48:16.191Z,3.00
2022-12-26T02:51:44.852Z,4.47
2022-12-26T02:55:25.329Z,4.30
2022-12-26T02:58:53.037Z,5.20
2022-12-26T03:02:16.236Z,4.80
2022-12-26T03:05:56.576Z,4.30
2022-12-26T03:09:24.696Z,5.23
2022-12-26T03:12:57.235Z,5.50
2022-12-26T03:16:22.050Z,6.60
2022-12-26T03:19:26.717Z,8.00
2022-12-26T03:22:31.115Z,9.10
2022-12-26T03:25:54.202Z,11.23
2022-12-26T03:29:18.978Z,9.47
2022-12-26T03:32:20.951Z,7.27
2022-12-26T03:35:23.742Z,7.20
2022-12-26T03:38:31.061Z,5.60
2022-12-26T03:42:09.736Z,4.87
2022-12-26T03:45:33.005Z,4.70
2022-12-26T03:48:56.392Z,4.10
2022-12-26T03:52:24.858Z,4.07
2022-12-26T03:55:45.158Z,4.63
2022-12-26T03:59:12.938Z,4.67
2022-12-26T04:02:36.027Z,3.87
2022-12-26T04:05:58.562Z,3.37
2022-12-26T04:09:21.145Z,3.70
2022-12-26T04:12:43.313Z,3.53
2022-12-26T04:16:16.881Z,5.27
2022-12-26T04:19:24.677Z,5.93
2022-12-26T04:22:56.372Z,5.50
2022-12-26T04:26:36.881Z,5.13
2022-12-26T04:29:57.065Z,5.43
2022-12-26T04:33:23.142Z,4.97
2022-12-26T04:36:48.352Z,5.93
2022-12-26T04:40:10.182Z,4.90
2022-12-26T04:43:47.323Z,4.93
2022-12-26T04:46:53.022Z,4.73
2022-12-26T04:50:12.716Z,6.10
2022-12-26T04:53:15.060Z,6.50
2022-12-26T04:56:17.212Z,5.10
2022-12-26T04:59:18.817Z,5.63
2022-12-26T05:02:38.923Z,5.27
2022-12-26T05:06:00.399Z,6.17
2022-12-26T05:09:20.573Z,5.20
2022-12-26T05:12:22.209Z,4.93
2022-12-26T05:15:23.950Z,4.33
2022-12-26T05:18:44.226Z,5.13
2022-12-26T05:22:04.388Z,5.90
2022-12-26T05:25:31.750Z,5.33
2022-12-26T05:28:42.609Z,5.10
2022-12-26T05:31:44.303Z,8.03
2022-12-26T05:34:45.939Z,8.57
2022-12-26T05:37:47.575Z,11.63
2022-12-26T05:40:49.214Z,10.97
2022-12-26T05:43:50.883Z,9.07
2022-12-26T05:46:52.572Z,10.63
2022-12-26T05:49:54.156Z,6.97
2022-12-26T05:52:59.150Z,9.20
2022-12-26T05:56:07.654Z,8.50
2022-12-26T05:59:09.511Z,7.37
2022-12-26T06:02:11.196Z,5.60
2022-12-26T06:05:12.974Z,5.67
2022-12-26T06:08:14.536Z,6.07
2022-12-26T06:11:16.730Z,6.40
2022-12-26T06:14:18.360Z,7.20
2022-12-26T06:17:19.996Z,5.57
2022-12-26T06:20:21.620Z,7.90
2022-12-26T06:23:23.433Z,7.80
2022-12-26T06:26:25.199Z,10.27
2022-12-26T06:29:26.755Z,8.00
2022-12-26T06:32:28.454Z,9.73
2022-12-26T06:35:30.054Z,7.53
2022-12-26T06:38:31.973Z,6.47
2022-12-26T06:41:33.636Z,9.23
2022-12-26T06:44:35.315Z,9.40
2022-12-26T06:47:36.915Z,9.17
2022-12-26T06:50:38.632Z,9.63
2022-12-26T06:53:40.869Z,8.17
2022-12-26T06:56:42.456Z,13.40
2022-12-26T06:59:44.115Z,18.00
2022-12-26T07:02:49.050Z,17.40
2022-12-26T07:05:50.782Z,12.67
2022-12-26T07:08:53.522Z,16.40
2022-12-26T07:11:56.525Z,17.97
2022-12-26T07:15:01.649Z,19.57
2022-12-26T07:18:03.773Z,17.93
2022-12-26T07:21:06.514Z,17.57
2022-12-26T07:24:14.518Z,17.47
2022-12-26T07:27:16.393Z,20.00
2022-12-26T07:30:18.079Z,19.60
2022-12-26T07:33:19.727Z,38.20
2022-12-26T07:36:22.494Z,38.00
2022-12-26T07:39:25.407Z,46.63
2022-12-26T07:42:30.146Z,30.17
2022-12-26T07:45:41.965Z,21.93
2022-12-26T07:48:47.765Z,30.33
2022-12-26T07:51:52.909Z,45.63
2022-12-26T07:54:56.068Z,39.93
2022-12-26T07:57:58.184Z,43.37
2022-12-26T08:01:01.112Z,46.43
2022-12-26T08:04:03.082Z,61.43
2022-12-26T08:07:04.861Z,55.40
2022-12-26T08:10:06.719Z,49.60
2022-12-26T08:13:08.884Z,63.73
2022-12-26T08:16:13.524Z,23.20
2022-12-26T08:19:15.224Z,20.53
2022-12-26T08:22:16.854Z,20.47
2022-12-26T08:25:21.929Z,20.77
2022-12-26T08:28:24.021Z,20.80
2022-12-26T08:34:33.803Z,18.13
2022-12-26T08:37:35.416Z,28.73
2022-12-26T08:40:44.849Z,32.43
2022-12-26T08:47:12.193Z,14.20
2022-12-26T08:50:13.854Z,20.07
2022-12-26T08:53:15.442Z,33.90
2022-12-26T08:56:18.184Z,41.93
2022-12-26T08:59:19.897Z,45.93
2022-12-26T09:02:21.677Z,53.93
2022-12-26T09:05:23.499Z,107.93
2022-12-26T09:08:25.081Z,134.43
2022-12-26T09:11:27.072Z,235.40
2022-12-26T09:14:28.668Z,266.60
2022-12-26T09:17:30.407Z,102.33
2022-12-26T09:20:32.809Z,70.30
2022-12-26T09:23:35.242Z,67.83
2022-12-26T09:26:38.390Z,56.83
2022-12-26T09:29:39.967Z,31.83
2022-12-26T09:32:41.988Z,75.77
2022-12-26T09:35:43.637Z,135.47
2022-12-26T09:38:46.008Z,52.87
2022-12-26T09:41:50.489Z,38.73
2022-12-26T09:44:57.328Z,32.53
2022-12-26T09:48:09.786Z,30.03
2022-12-26T09:51:11.399Z,26.23
2022-12-26T09:54:25.745Z,23.33
2022-12-26T09:57:34.382Z,25.47
2022-12-26T10:00:44.025Z,31.40
2022-12-26T10:03:54.275Z,30.73
2022-12-26T10:07:14.659Z,24.60
2022-12-26T10:10:38.935Z,27.20
2022-12-26T10:13:57.610Z,30.00
2022-12-26T10:16:59.124Z,42.13
2022-12-26T10:20:00.710Z,68.57
2022-12-26T10:23:22.583Z,25.57
2022-12-26T10:26:33.321Z,35.30
2022-12-26T10:29:41.351Z,30.70
2022-12-26T10:32:45.278Z,16.03
2022-12-26T10:35:47.176Z,18.50
2022-12-26T10:38:49.691Z,14.43
2022-12-26T10:41:53.590Z,16.00
2022-12-26T10:44:55.523Z,14.13
2022-12-26T10:47:58.141Z,10.23
2022-12-26T10:50:59.890Z,12.07
2022-12-26T10:54:01.453Z,9.37
2022-12-26T10:57:04.246Z,8.00
2022-12-26T11:00:14.215Z,9.70
2022-12-26T11:03:17.571Z,6.37
2022-12-26T11:06:19.887Z,10.23
2022-12-26T11:09:33.491Z,10.87
2022-12-26T11:12:58.671Z,11.83
2022-12-26T11:16:00.415Z,7.40
2022-12-26T11:19:02.068Z,13.63
2022-12-26T11:22:22.349Z,6.57
2022-12-26T11:25:25.069Z,6.33
2022-12-26T11:28:28.643Z,5.47
2022-12-26T11:31:32.189Z,6.50
2022-12-26T11:34:35.788Z,5.50
2022-12-26T11:37:41.510Z,5.03
2022-12-26T11:41:06.540Z,5.13
2022-12-26T11:44:14.243Z,6.07
2022-12-26T11:47:17.424Z,6.20
2022-12-26T11:50:22.710Z,31.83
2022-12-26T11:53:24.322Z,13.83
2022-12-26T11:56:26.148Z,8.37
2022-12-26T11:59:28.132Z,6.23
2022-12-26T12:02:31.840Z,6.23
2022-12-26T12:05:36.367Z,4.47
2022-12-26T12:08:53.847Z,4.60
2022-12-26T12:11:56.094Z,4.27
2022-12-26T12:15:12.810Z,5.47
2022-12-26T12:18:27.503Z,4.17
2022-12-26T12:21:40.836Z,6.03
2022-12-26T12:24:58.461Z,5.23
2022-12-26T12:28:00.268Z,5.27
2022-12-26T12:31:17.105Z,5.80
2022-12-26T12:34:25.002Z,3.60
2022-12-26T12:37:45.476Z,5.47
2022-12-26T12:41:05.449Z,5.97
2022-12-26T12:44:23.036Z,5.53
2022-12-26T12:47:37.645Z,6.90
2022-12-26T12:50:43.996Z,6.43
2022-12-26T12:54:04.197Z,6.87
2022-12-26T12:57:31.952Z,4.80
2022-12-26T13:00:39.493Z,4.60
2022-12-26T13:04:01.417Z,3.97
2022-12-26T13:07:06.343Z,5.60
2022-12-26T13:10:16.855Z,7.30
2022-12-26T13:13:49.992Z,11.63
2022-12-26T13:17:00.935Z,152.27
2022-12-26T13:20:12.132Z,98.17
2022-12-26T13:23:35.370Z,22.93
2022-12-26T13:26:58.151Z,15.57
2022-12-26T13:29:59.783Z,12.00
2022-12-26T13:33:02.026Z,14.30
2022-12-26T13:36:04.757Z,12.40
2022-12-26T13:39:12.454Z,13.83
2022-12-26T13:42:32.829Z,13.37
2022-12-26T13:45:37.670Z,13.07
2022-12-26T13:48:39.241Z,15.33
2022-12-26T13:51:40.960Z,15.70
2022-12-26T13:54:48.707Z,15.07
2022-12-26T13:58:07.280Z,17.97
2022-12-26T14:01:12.379Z,15.07
2022-12-26T14:04:32.838Z,16.43
2022-12-26T14:08:10.256Z,11.87
2022-12-26T14:11:12.042Z,12.90
2022-12-26T14:14:24.111Z,18.77
2022-12-26T14:17:25.870Z,17.60
2022-12-26T14:20:39.573Z,19.37
2022-12-26T14:24:03.163Z,16.10
2022-12-26T14:27:17.965Z,19.30
2022-12-26T14:30:25.937Z,22.23
2022-12-26T14:33:30.952Z,22.33
2022-12-26T14:36:35.549Z,23.10
2022-12-26T14:39:43.016Z,24.77
2022-12-26T14:43:10.387Z,26.10
2022-12-26T14:46:30.685Z,21.30
2022-12-26T14:49:35.900Z,27.40
2022-12-26T14:52:40.855Z,27.60
2022-12-26T14:55:54.743Z,32.27
2022-12-26T14:59:16.835Z,32.00
2022-12-26T15:02:19.144Z,36.63
2022-12-26T15:05:23.866Z,45.73
2022-12-26T15:08:34.584Z,54.03
2022-12-26T15:11:48.471Z,66.60
2022-12-26T15:14:50.021Z,60.60
2022-12-26T15:18:05.190Z,66.97
2022-12-26T15:21:21.801Z,67.27
2022-12-26T15:25:16.557Z,46.27
2022-12-26T15:27:57.190Z,49.53
2022-12-26T15:31:04.677Z,46.97
2022-12-26T15:34:15.252Z,49.03
2022-12-26T15:37:17.063Z,57.97
2022-12-26T15:40:18.601Z,50.87
2022-12-26T15:43:23.257Z,48.53
2022-12-26T15:46:36.685Z,47.53
2022-12-26T15:49:45.283Z,50.80
2022-12-26T15:52:47.013Z,51.73
2022-12-26T15:55:59.534Z,58.07
2022-12-26T15:59:09.062Z,49.03
2022-12-26T16:02:30.170Z,43.40
2022-12-26T16:05:50.527Z,48.53
2022-12-26T16:09:16.428Z,48.03
2022-12-26T16:12:20.290Z,46.60
2022-12-26T16:15:25.124Z,43.40
2022-12-26T16:18:28.551Z,40.30
2022-12-26T16:21:48.883Z,39.53
2022-12-26T16:24:51.637Z,33.53
2022-12-26T16:27:54.976Z,35.60
2022-12-26T16:30:57.325Z,39.43
2022-12-26T16:33:59.750Z,42.00
2022-12-26T16:37:02.004Z,36.73
2022-12-26T16:40:14.958Z,36.63
2022-12-26T16:43:19.745Z,36.70
2022-12-26T16:46:24.997Z,41.00
2022-12-26T16:49:27.360Z,39.70
2022-12-26T16:52:45.949Z,37.77
2022-12-26T16:55:49.646Z,41.13
2022-12-26T16:58:54.326Z,46.83
2022-12-26T17:01:58.470Z,47.40
2022-12-26T17:05:03.967Z,44.97
2022-12-26T17:08:06.055Z,45.37
2022-12-26T17:11:07.953Z,42.43
2022-12-26T17:14:16.719Z,41.70
2022-12-26T17:17:21.630Z,39.47
2022-12-26T17:20:23.464Z,38.13
2022-12-26T17:23:37.855Z,42.27
2022-12-26T17:26:40.977Z,35.50
2022-12-26T17:29:50.877Z,39.33
2022-12-26T17:32:52.607Z,24.93
2022-12-26T17:37:19.382Z,37.10
2022-12-26T17:39:29.564Z,37.87
2022-12-26T17:42:38.327Z,39.00
2022-12-26T17:45:46.606Z,44.13
2022-12-26T17:48:49.238Z,46.73
2022-12-26T17:51:58.260Z,45.03
2022-12-26T17:55:03.339Z,46.30
2022-12-26T17:58:05.515Z,52.70
2022-12-26T18:01:07.353Z,40.57
2022-12-26T18:04:11.467Z,29.97
2022-12-26T18:07:31.527Z,38.13
2022-12-26T18:10:35.265Z,24.87
2022-12-26T18:13:37.076Z,31.03
2022-12-26T18:16:38.727Z,26.17
2022-12-26T18:19:40.361Z,29.90
2022-12-26T18:22:42.179Z,29.63
2022-12-26T18:25:44.036Z,34.83
2022-12-26T18:28:46.289Z,33.23
2022-12-26T18:31:48.088Z,38.00
2022-12-26T18:34:50.306Z,35.23
2022-12-26T18:37:52.735Z,31.63
2022-12-26T18:40:54.475Z,31.47
2022-12-26T18:43:58.040Z,27.97
2022-12-26T18:46:59.604Z,29.43
2022-12-26T18:50:01.562Z,23.20
2022-12-26T18:53:03.308Z,32.23
2022-12-26T18:56:05.657Z,42.67
2022-12-26T18:59:09.514Z,36.33
2022-12-26T19:02:15.022Z,36.07
2022-12-26T19:05:22.265Z,37.20
2022-12-26T19:08:24.619Z,38.17
2022-12-26T19:11:26.587Z,44.40
2022-12-26T19:14:28.478Z,44.20
2022-12-26T19:17:30.725Z,34.83
2022-12-26T19:20:32.579Z,35.43
2022-12-26T19:23:34.552Z,34.63
2022-12-26T19:26:36.294Z,31.00
2022-12-26T19:29:38.157Z,33.33
2022-12-26T19:32:40.058Z,30.57
2022-12-26T19:35:41.903Z,34.30
2022-12-26T19:38:43.774Z,26.97
2022-12-26T19:41:45.562Z,28.53
2022-12-26T19:44:48.115Z,16.40
2022-12-26T19:47:50.213Z,23.07
2022-12-26T19:50:52.032Z,25.23
2022-12-26T19:53:53.774Z,29.70
2022-12-26T19:56:55.799Z,29.07
2022-12-26T19:59:57.704Z,29.17
2022-12-26T20:02:59.397Z,26.33
2022-12-26T20:06:07.369Z,27.83
2022-12-26T20:09:10.460Z,28.93
2022-12-26T20:12:12.039Z,29.73
2022-12-26T20:15:13.713Z,31.07
2022-12-26T20:18:15.403Z,33.43
2022-12-26T20:21:17.016Z,32.97
2022-12-26T20:24:20.078Z,30.17
2022-12-26T20:27:21.659Z,33.77
2022-12-26T20:30:23.593Z,31.03
2022-12-26T20:33:25.775Z,29.33
2022-12-26T20:36:32.223Z,29.13
2022-12-26T20:39:33.813Z,26.83
2022-12-26T20:42:35.566Z,24.87
2022-12-26T20:45:37.807Z,23.97
2022-12-26T20:48:39.392Z,22.63
2022-12-26T20:51:41.580Z,21.07
2022-12-26T20:54:43.146Z,21.07
2022-12-26T20:57:44.813Z,22.73
2022-12-26T21:00:55.357Z,19.70
2022-12-26T21:03:57.474Z,18.67
2022-12-26T21:06:59.086Z,19.83
2022-12-26T21:10:00.921Z,18.93
2022-12-26T21:13:02.700Z,21.30
2022-12-26T21:16:12.131Z,20.83
2022-12-26T21:19:15.575Z,21.53
2022-12-26T21:22:17.621Z,18.43
2022-12-26T21:25:19.234Z,14.10
2022-12-26T21:28:20.825Z,11.47
2022-12-26T21:31:22.737Z,13.67
2022-12-26T21:34:26.104Z,10.63
2022-12-26T21:37:46.402Z,7.90
2022-12-26T21:40:48.670Z,7.30
2022-12-26T21:43:50.773Z,6.50
2022-12-26T21:46:52.521Z,8.70
2022-12-26T21:49:54.546Z,11.57
2022-12-26T21:52:56.256Z,8.43
2022-12-26T21:56:03.684Z,9.60
2022-12-26T21:59:23.967Z,10.67
2022-12-26T22:02:45.498Z,11.67
2022-12-26T22:05:47.255Z,8.87
2022-12-26T22:08:48.914Z,7.90
2022-12-26T22:12:09.219Z,10.53
2022-12-26T22:15:30.215Z,8.40
2022-12-26T22:18:42.165Z,11.07
2022-12-26T22:21:43.795Z,7.97
2022-12-26T22:24:45.467Z,6.50
2022-12-26T22:27:47.219Z,7.50
2022-12-26T22:30:49.656Z,7.60
2022-12-26T22:34:04.763Z,6.27
2022-12-26T22:37:06.386Z,5.60
2022-12-26T22:40:08.364Z,7.10
2022-12-26T22:43:09.963Z,8.93
2022-12-26T22:46:12.348Z,10.47
2022-12-26T22:49:13.917Z,9.17
2022-12-26T22:52:16.098Z,7.50
2022-12-26T22:55:17.895Z,11.23
2022-12-26T22:58:19.619Z,5.80
2022-12-26T23:01:21.900Z,9.03
2022-12-26T23:04:23.791Z,6.03
2022-12-26T23:07:25.523Z,4.73
2022-12-26T23:10:27.533Z,6.53
2022-12-26T23:13:29.259Z,3.57
2022-12-26T23:16:37.793Z,3.60
2022-12-26T23:20:10.416Z,3.50
2022-12-26T23:23:12.243Z,3.90
2022-12-26T23:26:13.899Z,4.43
2022-12-26T23:29:35.124Z,3.70
2022-12-26T23:32:37.499Z,5.90
2022-12-26T23:35:40.173Z,5.33
2022-12-26T23:38:42.022Z,4.90
2022-12-26T23:41:43.751Z,7.30
2022-12-26T23:44:45.317Z,7.60
2022-12-26T23:47:47.065Z,4.67
2022-12-26T23:50:49.691Z,7.20
2022-12-26T23:53:51.384Z,8.50
2022-12-26T23:56:53.037Z,7.43
2022-12-26T23:59:54.842Z,8.20
